Flamingo Lodge, Florida
Current Conditions -  °F | °C
As of 1:58 AM on Friday 28 Nov 2014 (Local Time) from KHST Reporting Station
Clear Clear  
Wind Chill: 55°   Ceiling: Unl
Heat Index: 55°   Visibility: 10mi
Dew Point: 45°   Wind: 13mph
Humidity: 68%   Direction: 330°NNW
Pressure: 30.17"   Gusts: NA
Location:  25.3018°N, 80.7387°W
Report Text: KHST 280658Z AUTO 33011KT 10SM CLR 13/07 A3017 RMK AO2 SLP220 T01300073 $
Loading
Personal Weather Stations






























Interactive Weather Map New forecast layout! Learn more

10-Day Weather Forecast

Advertisements
Track Severe Weather on mobile